sensor_id;sensor_type;location;lat;lon;timestamp;temperature;humidity
12060;DHT22;6091;51.432;6.880;2024-03-06T00:01:44;23.20;38.60
12060;DHT22;6091;51.432;6.880;2024-03-06T00:04:12;22.80;38.30
12060;DHT22;6091;51.432;6.880;2024-03-06T00:06:43;22.80;38.30
12060;DHT22;6091;51.432;6.880;2024-03-06T00:09:11;22.80;38.30
12060;DHT22;6091;51.432;6.880;2024-03-06T00:11:38;22.80;38.40
12060;DHT22;6091;51.432;6.880;2024-03-06T00:14:06;22.90;38.40
12060;DHT22;6091;51.432;6.880;2024-03-06T00:16:34;22.80;38.40
12060;DHT22;6091;51.432;6.880;2024-03-06T00:19:01;22.80;38.40
12060;DHT22;6091;51.432;6.880;2024-03-06T00:21:29;22.80;38.40
12060;DHT22;6091;51.432;6.880;2024-03-06T00:23:56;22.70;38.40
12060;DHT22;6091;51.432;6.880;2024-03-06T00:26:23;22.70;38.40
12060;DHT22;6091;51.432;6.880;2024-03-06T00:28:50;22.70;38.40
12060;DHT22;6091;51.432;6.880;2024-03-06T00:31:18;22.40;38.20
12060;DHT22;6091;51.432;6.880;2024-03-06T00:33:46;22.70;38.50
12060;DHT22;6091;51.432;6.880;2024-03-06T00:36:13;22.70;38.50
12060;DHT22;6091;51.432;6.880;2024-03-06T00:38:40;22.70;38.50
12060;DHT22;6091;51.432;6.880;2024-03-06T00:41:07;22.70;38.50
12060;DHT22;6091;51.432;6.880;2024-03-06T00:43:35;22.70;38.50
12060;DHT22;6091;51.432;6.880;2024-03-06T00:46:05;22.70;38.60
12060;DHT22;6091;51.432;6.880;2024-03-06T00:48:32;22.60;38.50
12060;DHT22;6091;51.432;6.880;2024-03-06T00:50:59;22.60;38.50
12060;DHT22;6091;51.432;6.880;2024-03-06T00:53:27;22.60;38.50
12060;DHT22;6091;51.432;6.880;2024-03-06T00:55:54;22.60;38.50
12060;DHT22;6091;51.432;6.880;2024-03-06T00:58:21;22.60;38.50
12060;DHT22;6091;51.432;6.880;2024-03-06T01:00:48;22.60;38.50
12060;DHT22;6091;51.432;6.880;2024-03-06T01:03:16;22.60;38.50
12060;DHT22;6091;51.432;6.880;2024-03-06T01:05:43;22.60;38.50
12060;DHT22;6091;51.432;6.880;2024-03-06T01:08:10;22.50;38.50
12060;DHT22;6091;51.432;6.880;2024-03-06T01:10:37;22.60;38.60
12060;DHT22;6091;51.432;6.880;2024-03-06T01:13:04;22.50;38.50
12060;DHT22;6091;51.432;6.880;2024-03-06T01:15:34;22.50;38.50
12060;DHT22;6091;51.432;6.880;2024-03-06T01:18:02;22.50;38.60
12060;DHT22;6091;51.432;6.880;2024-03-06T01:20:30;22.50;38.60
12060;DHT22;6091;51.432;6.880;2024-03-06T01:22:57;22.50;38.60
12060;DHT22;6091;51.432;6.880;2024-03-06T01:25:28;22.50;38.60
12060;DHT22;6091;51.432;6.880;2024-03-06T01:27:55;22.50;38.70
12060;DHT22;6091;51.432;6.880;2024-03-06T01:30:22;22.50;38.60
12060;DHT22;6091;51.432;6.880;2024-03-06T01:32:49;22.50;38.60
12060;DHT22;6091;51.432;6.880;2024-03-06T01:35:17;22.50;38.70
12060;DHT22;6091;51.432;6.880;2024-03-06T01:37:44;22.50;38.70
12060;DHT22;6091;51.432;6.880;2024-03-06T01:40:11;22.40;38.60
12060;DHT22;6091;51.432;6.880;2024-03-06T01:42:39;22.40;38.60
12060;DHT22;6091;51.432;6.880;2024-03-06T01:45:10;22.40;38.60
12060;DHT22;6091;51.432;6.880;2024-03-06T01:47:37;22.40;38.60
12060;DHT22;6091;51.432;6.880;2024-03-06T01:50:05;22.40;38.60
12060;DHT22;6091;51.432;6.880;2024-03-06T01:52:36;22.40;38.60
12060;DHT22;6091;51.432;6.880;2024-03-06T01:55:07;22.40;38.70
12060;DHT22;6091;51.432;6.880;2024-03-06T01:57:38;22.40;38.70
12060;DHT22;6091;51.432;6.880;2024-03-06T02:00:11;22.40;38.70
12060;DHT22;6091;51.432;6.880;2024-03-06T02:02:44;22.40;38.70
12060;DHT22;6091;51.432;6.880;2024-03-06T02:05:12;22.40;38.80
12060;DHT22;6091;51.432;6.880;2024-03-06T02:07:39;22.40;38.70
12060;DHT22;6091;51.432;6.880;2024-03-06T02:10:07;22.40;38.70
12060;DHT22;6091;51.432;6.880;2024-03-06T02:12:36;22.30;38.70
12060;DHT22;6091;51.432;6.880;2024-03-06T02:15:04;22.30;38.70
12060;DHT22;6091;51.432;6.880;2024-03-06T02:17:32;22.30;38.70
12060;DHT22;6091;51.432;6.880;2024-03-06T02:20:01;22.70;39.10
12060;DHT22;6091;51.432;6.880;2024-03-06T02:22:32;22.30;38.70
12060;DHT22;6091;51.432;6.880;2024-03-06T02:25:00;22.20;38.60
12060;DHT22;6091;51.432;6.880;2024-03-06T02:27:27;22.30;38.70
12060;DHT22;6091;51.432;6.880;2024-03-06T02:29:54;22.30;38.70
12060;DHT22;6091;51.432;6.880;2024-03-06T02:32:23;22.30;38.70
12060;DHT22;6091;51.432;6.880;2024-03-06T02:34:52;22.30;38.80
12060;DHT22;6091;51.432;6.880;2024-03-06T02:37:19;22.30;38.80
12060;DHT22;6091;51.432;6.880;2024-03-06T02:39:46;22.20;38.70
12060;DHT22;6091;51.432;6.880;2024-03-06T02:42:13;22.20;38.70
12060;DHT22;6091;51.432;6.880;2024-03-06T02:44:41;22.30;38.80
12060;DHT22;6091;51.432;6.880;2024-03-06T02:47:09;22.20;38.70
12060;DHT22;6091;51.432;6.880;2024-03-06T02:49:36;22.20;38.70
12060;DHT22;6091;51.432;6.880;2024-03-06T02:52:04;22.20;38.70
12060;DHT22;6091;51.432;6.880;2024-03-06T02:54:31;22.20;38.80
12060;DHT22;6091;51.432;6.880;2024-03-06T02:56:58;22.20;39.40
12060;DHT22;6091;51.432;6.880;2024-03-06T02:59:25;22.20;38.80
12060;DHT22;6091;51.432;6.880;2024-03-06T03:01:53;22.20;38.80
12060;DHT22;6091;51.432;6.880;2024-03-06T03:04:20;22.20;38.80
12060;DHT22;6091;51.432;6.880;2024-03-06T03:06:47;21.70;38.40
12060;DHT22;6091;51.432;6.880;2024-03-06T03:09:15;22.20;38.80
12060;DHT22;6091;51.432;6.880;2024-03-06T03:11:43;22.20;38.80
12060;DHT22;6091;51.432;6.880;2024-03-06T03:14:13;22.20;38.80
12060;DHT22;6091;51.432;6.880;2024-03-06T03:16:40;22.10;38.80
12060;DHT22;6091;51.432;6.880;2024-03-06T03:19:08;22.10;38.80
12060;DHT22;6091;51.432;6.880;2024-03-06T03:21:35;22.10;38.80
12060;DHT22;6091;51.432;6.880;2024-03-06T03:24:03;22.10;38.80
12060;DHT22;6091;51.432;6.880;2024-03-06T03:26:30;22.10;38.80
12060;DHT22;6091;51.432;6.880;2024-03-06T03:28:57;22.10;38.90
12060;DHT22;6091;51.432;6.880;2024-03-06T03:31:24;22.10;38.80
12060;DHT22;6091;51.432;6.880;2024-03-06T03:33:52;22.20;38.90
12060;DHT22;6091;51.432;6.880;2024-03-06T03:36:19;22.10;38.90
12060;DHT22;6091;51.432;6.880;2024-03-06T03:38:46;22.10;38.80
12060;DHT22;6091;51.432;6.880;2024-03-06T03:41:13;22.10;38.90
12060;DHT22;6091;51.432;6.880;2024-03-06T03:43:41;21.80;38.60
12060;DHT22;6091;51.432;6.880;2024-03-06T03:46:08;22.10;38.90
12060;DHT22;6091;51.432;6.880;2024-03-06T03:48:36;22.20;38.90
12060;DHT22;6091;51.432;6.880;2024-03-06T03:51:05;22.10;38.90
12060;DHT22;6091;51.432;6.880;2024-03-06T03:53:34;22.00;38.80
12060;DHT22;6091;51.432;6.880;2024-03-06T03:56:02;22.10;39.60
12060;DHT22;6091;51.432;6.880;2024-03-06T03:58:30;22.00;38.80
12060;DHT22;6091;51.432;6.880;2024-03-06T04:00:58;22.00;38.80
12060;DHT22;6091;51.432;6.880;2024-03-06T04:03:25;22.00;38.90
12060;DHT22;6091;51.432;6.880;2024-03-06T04:05:52;22.00;38.90
12060;DHT22;6091;51.432;6.880;2024-03-06T04:08:20;22.00;38.90
12060;DHT22;6091;51.432;6.880;2024-03-06T04:10:47;22.00;38.90
12060;DHT22;6091;51.432;6.880;2024-03-06T04:13:15;22.00;38.90
12060;DHT22;6091;51.432;6.880;2024-03-06T04:15:43;22.00;38.90
12060;DHT22;6091;51.432;6.880;2024-03-06T04:18:10;22.00;38.90
12060;DHT22;6091;51.432;6.880;2024-03-06T04:20:37;22.00;38.90
12060;DHT22;6091;51.432;6.880;2024-03-06T04:23:04;22.00;39.00
12060;DHT22;6091;51.432;6.880;2024-03-06T04:25:32;22.00;39.00
12060;DHT22;6091;51.432;6.880;2024-03-06T04:27:59;21.90;38.80
12060;DHT22;6091;51.432;6.880;2024-03-06T04:30:26;21.90;38.80
12060;DHT22;6091;51.432;6.880;2024-03-06T04:32:53;21.90;38.80
12060;DHT22;6091;51.432;6.880;2024-03-06T04:35:20;21.90;38.90
12060;DHT22;6091;51.432;6.880;2024-03-06T04:37:47;21.90;38.90
12060;DHT22;6091;51.432;6.880;2024-03-06T04:40:14;21.90;38.90
12060;DHT22;6091;51.432;6.880;2024-03-06T04:42:48;21.90;38.90
12060;DHT22;6091;51.432;6.880;2024-03-06T04:45:16;21.90;38.90
12060;DHT22;6091;51.432;6.880;2024-03-06T04:47:44;21.90;39.00
12060;DHT22;6091;51.432;6.880;2024-03-06T04:50:12;21.90;38.90
12060;DHT22;6091;51.432;6.880;2024-03-06T04:52:41;21.90;39.00
12060;DHT22;6091;51.432;6.880;2024-03-06T04:55:09;21.90;38.90
12060;DHT22;6091;51.432;6.880;2024-03-06T04:57:42;21.90;39.00
12060;DHT22;6091;51.432;6.880;2024-03-06T05:00:11;21.90;39.00
12060;DHT22;6091;51.432;6.880;2024-03-06T05:02:39;21.80;38.90
12060;DHT22;6091;51.432;6.880;2024-03-06T05:05:27;21.80;38.90
12060;DHT22;6091;51.432;6.880;2024-03-06T05:08:11;21.80;38.90
12060;DHT22;6091;51.432;6.880;2024-03-06T05:10:56;21.80;38.90
12060;DHT22;6091;51.432;6.880;2024-03-06T05:13:41;21.80;38.90
12060;DHT22;6091;51.432;6.880;2024-03-06T05:16:25;21.80;38.90
12060;DHT22;6091;51.432;6.880;2024-03-06T05:19:10;21.80;39.00
12060;DHT22;6091;51.432;6.880;2024-03-06T05:21:55;21.80;39.00
12060;DHT22;6091;51.432;6.880;2024-03-06T05:24:40;21.80;39.00
12060;DHT22;6091;51.432;6.880;2024-03-06T05:27:26;21.80;39.00
12060;DHT22;6091;51.432;6.880;2024-03-06T05:30:12;21.70;38.90
12060;DHT22;6091;51.432;6.880;2024-03-06T05:32:56;21.70;38.90
12060;DHT22;6091;51.432;6.880;2024-03-06T05:35:41;21.70;38.90
12060;DHT22;6091;51.432;6.880;2024-03-06T05:38:26;21.70;38.90
12060;DHT22;6091;51.432;6.880;2024-03-06T05:41:11;21.70;38.90
12060;DHT22;6091;51.432;6.880;2024-03-06T05:43:56;21.70;38.90
12060;DHT22;6091;51.432;6.880;2024-03-06T05:46:41;21.70;39.00
12060;DHT22;6091;51.432;6.880;2024-03-06T05:49:25;21.70;39.00
12060;DHT22;6091;51.432;6.880;2024-03-06T05:52:10;21.70;39.00
12060;DHT22;6091;51.432;6.880;2024-03-06T05:54:55;21.60;38.90
12060;DHT22;6091;51.432;6.880;2024-03-06T05:57:40;21.60;38.90
12060;DHT22;6091;51.432;6.880;2024-03-06T06:00:29;21.60;39.00
12060;DHT22;6091;51.432;6.880;2024-03-06T06:02:57;21.60;38.90
12060;DHT22;6091;51.432;6.880;2024-03-06T06:05:24;21.90;39.20
12060;DHT22;6091;51.432;6.880;2024-03-06T06:07:51;21.60;39.10
12060;DHT22;6091;51.432;6.880;2024-03-06T06:10:22;21.60;39.20
12060;DHT22;6091;51.432;6.880;2024-03-06T06:12:49;21.60;39.40
12060;DHT22;6091;51.432;6.880;2024-03-06T06:15:16;21.70;39.60
12060;DHT22;6091;51.432;6.880;2024-03-06T06:17:44;21.70;39.80
12060;DHT22;6091;51.432;6.880;2024-03-06T06:20:13;21.90;40.20
12060;DHT22;6091;51.432;6.880;2024-03-06T06:22:45;22.00;40.20
12060;DHT22;6091;51.432;6.880;2024-03-06T06:25:12;22.20;40.30
12060;DHT22;6091;51.432;6.880;2024-03-06T06:27:40;22.30;40.40
12060;DHT22;6091;51.432;6.880;2024-03-06T06:30:07;22.50;40.30
12060;DHT22;6091;51.432;6.880;2024-03-06T06:32:41;22.70;40.30
12060;DHT22;6091;51.432;6.880;2024-03-06T06:35:10;22.90;40.20
12060;DHT22;6091;51.432;6.880;2024-03-06T06:37:40;23.10;40.10
12060;DHT22;6091;51.432;6.880;2024-03-06T06:40:08;23.30;40.00
12060;DHT22;6091;51.432;6.880;2024-03-06T06:42:36;23.50;39.70
12060;DHT22;6091;51.432;6.880;2024-03-06T06:45:05;23.60;39.90
12060;DHT22;6091;51.432;6.880;2024-03-06T06:47:37;23.80;39.80
12060;DHT22;6091;51.432;6.880;2024-03-06T06:50:06;24.00;39.70
12060;DHT22;6091;51.432;6.880;2024-03-06T06:52:36;24.20;39.60
12060;DHT22;6091;51.432;6.880;2024-03-06T06:55:03;24.40;39.60
12060;DHT22;6091;51.432;6.880;2024-03-06T06:57:32;24.50;39.40
12060;DHT22;6091;51.432;6.880;2024-03-06T07:00:01;24.70;39.40
12060;DHT22;6091;51.432;6.880;2024-03-06T07:02:38;25.00;38.60
12060;DHT22;6091;51.432;6.880;2024-03-06T07:05:07;24.90;39.30
12060;DHT22;6091;51.432;6.880;2024-03-06T07:07:35;25.00;39.10
12060;DHT22;6091;51.432;6.880;2024-03-06T07:10:04;25.20;39.10
12060;DHT22;6091;51.432;6.880;2024-03-06T07:12:32;25.30;39.00
12060;DHT22;6091;51.432;6.880;2024-03-06T07:14:59;25.40;38.90
12060;DHT22;6091;51.432;6.880;2024-03-06T07:17:27;25.50;38.80
12060;DHT22;6091;51.432;6.880;2024-03-06T07:19:54;25.60;38.80
12060;DHT22;6091;51.432;6.880;2024-03-06T07:22:22;25.60;38.60
12060;DHT22;6091;51.432;6.880;2024-03-06T07:24:50;25.70;38.50
12060;DHT22;6091;51.432;6.880;2024-03-06T07:27:17;25.80;38.50
12060;DHT22;6091;51.432;6.880;2024-03-06T07:29:45;25.80;37.70
12060;DHT22;6091;51.432;6.880;2024-03-06T07:32:12;25.80;38.20
12060;DHT22;6091;51.432;6.880;2024-03-06T07:34:39;25.90;38.30
12060;DHT22;6091;51.432;6.880;2024-03-06T07:37:06;26.00;38.20
12060;DHT22;6091;51.432;6.880;2024-03-06T07:39:33;26.00;38.10
12060;DHT22;6091;51.432;6.880;2024-03-06T07:42:01;26.00;38.00
12060;DHT22;6091;51.432;6.880;2024-03-06T07:44:29;26.10;37.90
12060;DHT22;6091;51.432;6.880;2024-03-06T07:46:56;26.10;37.90
12060;DHT22;6091;51.432;6.880;2024-03-06T07:49:23;26.10;37.70
12060;DHT22;6091;51.432;6.880;2024-03-06T07:51:50;26.10;37.70
12060;DHT22;6091;51.432;6.880;2024-03-06T07:54:17;26.10;37.60
12060;DHT22;6091;51.432;6.880;2024-03-06T07:56:44;26.00;37.50
12060;DHT22;6091;51.432;6.880;2024-03-06T07:59:12;26.00;37.50
12060;DHT22;6091;51.432;6.880;2024-03-06T08:01:39;26.00;37.50
12060;DHT22;6091;51.432;6.880;2024-03-06T08:04:07;25.90;37.40
12060;DHT22;6091;51.432;6.880;2024-03-06T08:06:34;25.90;37.50
12060;DHT22;6091;51.432;6.880;2024-03-06T08:09:05;25.90;37.40
12060;DHT22;6091;51.432;6.880;2024-03-06T08:11:34;25.90;37.50
12060;DHT22;6091;51.432;6.880;2024-03-06T08:14:01;25.90;37.50
12060;DHT22;6091;51.432;6.880;2024-03-06T08:16:29;25.90;37.50
12060;DHT22;6091;51.432;6.880;2024-03-06T08:19:00;25.80;37.50
12060;DHT22;6091;51.432;6.880;2024-03-06T08:21:28;25.80;37.50
12060;DHT22;6091;51.432;6.880;2024-03-06T08:23:55;25.80;37.60
12060;DHT22;6091;51.432;6.880;2024-03-06T08:26:22;25.80;37.60
12060;DHT22;6091;51.432;6.880;2024-03-06T08:28:50;25.80;37.60
12060;DHT22;6091;51.432;6.880;2024-03-06T08:31:18;25.90;37.70
12060;DHT22;6091;51.432;6.880;2024-03-06T08:33:45;25.90;37.70
12060;DHT22;6091;51.432;6.880;2024-03-06T08:36:13;25.80;37.60
12060;DHT22;6091;51.432;6.880;2024-03-06T08:38:40;25.90;37.60
12060;DHT22;6091;51.432;6.880;2024-03-06T08:41:07;25.90;37.60
12060;DHT22;6091;51.432;6.880;2024-03-06T08:43:35;26.00;37.60
12060;DHT22;6091;51.432;6.880;2024-03-06T08:46:02;26.00;37.60
12060;DHT22;6091;51.432;6.880;2024-03-06T08:48:30;26.00;37.60
12060;DHT22;6091;51.432;6.880;2024-03-06T08:50:57;26.00;37.50
12060;DHT22;6091;51.432;6.880;2024-03-06T08:53:24;26.10;37.50
12060;DHT22;6091;51.432;6.880;2024-03-06T08:55:51;26.10;37.40
12060;DHT22;6091;51.432;6.880;2024-03-06T08:58:19;26.10;37.40
12060;DHT22;6091;51.432;6.880;2024-03-06T09:00:48;26.20;37.50
12060;DHT22;6091;51.432;6.880;2024-03-06T09:03:16;26.20;37.40
12060;DHT22;6091;51.432;6.880;2024-03-06T09:05:43;26.20;37.30
12060;DHT22;6091;51.432;6.880;2024-03-06T09:08:10;26.20;37.30
12060;DHT22;6091;51.432;6.880;2024-03-06T09:10:39;26.20;37.30
12060;DHT22;6091;51.432;6.880;2024-03-06T09:13:06;26.20;37.30
12060;DHT22;6091;51.432;6.880;2024-03-06T09:15:34;26.20;37.20
12060;DHT22;6091;51.432;6.880;2024-03-06T09:18:01;26.20;37.20
12060;DHT22;6091;51.432;6.880;2024-03-06T09:20:30;26.20;37.20
12060;DHT22;6091;51.432;6.880;2024-03-06T09:22:58;26.20;37.20
12060;DHT22;6091;51.432;6.880;2024-03-06T09:25:27;26.10;37.10
12060;DHT22;6091;51.432;6.880;2024-03-06T09:27:56;26.00;37.40
12060;DHT22;6091;51.432;6.880;2024-03-06T09:30:23;26.10;37.40
12060;DHT22;6091;51.432;6.880;2024-03-06T09:32:50;26.10;37.30
12060;DHT22;6091;51.432;6.880;2024-03-06T09:35:18;26.10;37.20
12060;DHT22;6091;51.432;6.880;2024-03-06T09:37:46;26.10;37.20
12060;DHT22;6091;51.432;6.880;2024-03-06T09:40:20;26.10;37.70
12060;DHT22;6091;51.432;6.880;2024-03-06T09:42:50;26.10;36.70
12060;DHT22;6091;51.432;6.880;2024-03-06T09:45:17;25.80;36.60
12060;DHT22;6091;51.432;6.880;2024-03-06T09:47:47;26.10;36.60
12060;DHT22;6091;51.432;6.880;2024-03-06T09:50:23;26.10;36.50
12060;DHT22;6091;51.432;6.880;2024-03-06T09:52:53;26.10;36.40
12060;DHT22;6091;51.432;6.880;2024-03-06T09:55:25;26.10;36.60
12060;DHT22;6091;51.432;6.880;2024-03-06T09:57:53;26.10;36.60
12060;DHT22;6091;51.432;6.880;2024-03-06T10:00:24;26.00;36.60
12060;DHT22;6091;51.432;6.880;2024-03-06T10:03:03;26.10;36.70
12060;DHT22;6091;51.432;6.880;2024-03-06T10:05:37;26.00;36.40
12060;DHT22;6091;51.432;6.880;2024-03-06T10:08:05;26.10;36.70
12060;DHT22;6091;51.432;6.880;2024-03-06T10:10:33;26.10;36.70
12060;DHT22;6091;51.432;6.880;2024-03-06T10:13:00;26.10;36.70
12060;DHT22;6091;51.432;6.880;2024-03-06T10:15:30;26.10;36.70
12060;DHT22;6091;51.432;6.880;2024-03-06T10:18:18;26.20;36.70
12060;DHT22;6091;51.432;6.880;2024-03-06T10:20:46;26.30;36.50
12060;DHT22;6091;51.432;6.880;2024-03-06T10:23:15;26.30;36.70
12060;DHT22;6091;51.432;6.880;2024-03-06T10:25:43;26.30;36.60
12060;DHT22;6091;51.432;6.880;2024-03-06T10:28:12;26.40;36.60
12060;DHT22;6091;51.432;6.880;2024-03-06T10:30:41;26.40;36.50
12060;DHT22;6091;51.432;6.880;2024-03-06T10:33:14;26.50;36.50
12060;DHT22;6091;51.432;6.880;2024-03-06T10:35:44;26.50;36.50
12060;DHT22;6091;51.432;6.880;2024-03-06T10:38:15;26.60;36.40
12060;DHT22;6091;51.432;6.880;2024-03-06T10:40:43;26.60;36.50
12060;DHT22;6091;51.432;6.880;2024-03-06T10:43:11;26.70;36.40
12060;DHT22;6091;51.432;6.880;2024-03-06T10:45:50;26.70;36.40
12060;DHT22;6091;51.432;6.880;2024-03-06T10:48:21;26.80;36.10
12060;DHT22;6091;51.432;6.880;2024-03-06T10:50:49;26.90;36.50
12060;DHT22;6091;51.432;6.880;2024-03-06T10:53:18;26.90;36.40
12060;DHT22;6091;51.432;6.880;2024-03-06T10:55:50;27.00;36.40
12060;DHT22;6091;51.432;6.880;2024-03-06T10:58:20;27.00;36.30
12060;DHT22;6091;51.432;6.880;2024-03-06T11:00:48;27.10;36.10
12060;DHT22;6091;51.432;6.880;2024-03-06T11:03:18;27.10;36.00
12060;DHT22;6091;51.432;6.880;2024-03-06T11:05:46;27.10;36.00
12060;DHT22;6091;51.432;6.880;2024-03-06T11:08:19;27.20;35.90
12060;DHT22;6091;51.432;6.880;2024-03-06T11:10:48;27.20;35.90
12060;DHT22;6091;51.432;6.880;2024-03-06T11:13:25;27.10;35.80
12060;DHT22;6091;51.432;6.880;2024-03-06T11:15:57;27.20;35.50
12060;DHT22;6091;51.432;6.880;2024-03-06T11:26:42;27.20;35.40
12060;DHT22;6091;51.432;6.880;2024-03-06T11:29:18;27.20;35.70
12060;DHT22;6091;51.432;6.880;2024-03-06T11:32:07;27.20;35.80
12060;DHT22;6091;51.432;6.880;2024-03-06T11:34:36;27.30;35.80
12060;DHT22;6091;51.432;6.880;2024-03-06T11:37:06;27.40;36.30
12060;DHT22;6091;51.432;6.880;2024-03-06T11:39:38;27.60;36.40
12060;DHT22;6091;51.432;6.880;2024-03-06T11:42:09;27.80;36.40
12060;DHT22;6091;51.432;6.880;2024-03-06T11:44:36;28.00;36.40
12060;DHT22;6091;51.432;6.880;2024-03-06T11:47:20;28.30;36.30
12060;DHT22;6091;51.432;6.880;2024-03-06T11:49:48;28.50;36.20
12060;DHT22;6091;51.432;6.880;2024-03-06T11:52:16;28.80;36.10
12060;DHT22;6091;51.432;6.880;2024-03-06T11:54:45;29.00;35.80
12060;DHT22;6091;51.432;6.880;2024-03-06T11:57:12;29.30;35.70
12060;DHT22;6091;51.432;6.880;2024-03-06T11:59:43;29.40;35.50
12060;DHT22;6091;51.432;6.880;2024-03-06T12:02:10;29.60;35.40
12060;DHT22;6091;51.432;6.880;2024-03-06T12:04:38;29.80;35.20
12060;DHT22;6091;51.432;6.880;2024-03-06T12:07:08;30.00;35.00
12060;DHT22;6091;51.432;6.880;2024-03-06T12:09:38;30.10;34.80
12060;DHT22;6091;51.432;6.880;2024-03-06T12:12:10;30.30;34.70
12060;DHT22;6091;51.432;6.880;2024-03-06T12:14:39;30.40;34.70
12060;DHT22;6091;51.432;6.880;2024-03-06T12:17:12;30.50;34.40
12060;DHT22;6091;51.432;6.880;2024-03-06T12:19:48;30.70;34.00
12060;DHT22;6091;51.432;6.880;2024-03-06T12:22:15;30.80;33.80
12060;DHT22;6091;51.432;6.880;2024-03-06T12:24:43;30.90;34.00
12060;DHT22;6091;51.432;6.880;2024-03-06T12:27:13;31.00;34.00
12060;DHT22;6091;51.432;6.880;2024-03-06T12:29:40;31.10;33.90
12060;DHT22;6091;51.432;6.880;2024-03-06T12:32:16;31.20;33.70
12060;DHT22;6091;51.432;6.880;2024-03-06T12:34:57;31.30;33.10
12060;DHT22;6091;51.432;6.880;2024-03-06T12:37:29;31.30;32.70
12060;DHT22;6091;51.432;6.880;2024-03-06T12:40:03;31.40;33.40
12060;DHT22;6091;51.432;6.880;2024-03-06T12:42:40;31.50;33.20
12060;DHT22;6091;51.432;6.880;2024-03-06T12:45:08;31.60;33.10
12060;DHT22;6091;51.432;6.880;2024-03-06T12:47:37;31.60;32.90
12060;DHT22;6091;51.432;6.880;2024-03-06T12:50:05;31.60;32.70
12060;DHT22;6091;51.432;6.880;2024-03-06T12:52:35;31.60;32.40
12060;DHT22;6091;51.432;6.880;2024-03-06T12:55:02;31.60;32.30
12060;DHT22;6091;51.432;6.880;2024-03-06T12:57:32;31.50;32.10
12060;DHT22;6091;51.432;6.880;2024-03-06T13:00:00;31.40;32.00
12060;DHT22;6091;51.432;6.880;2024-03-06T13:02:27;31.30;32.00
12060;DHT22;6091;51.432;6.880;2024-03-06T13:04:54;31.20;32.10
12060;DHT22;6091;51.432;6.880;2024-03-06T13:07:22;31.10;32.10
12060;DHT22;6091;51.432;6.880;2024-03-06T13:09:50;31.10;32.80
12060;DHT22;6091;51.432;6.880;2024-03-06T13:12:17;31.10;32.30
12060;DHT22;6091;51.432;6.880;2024-03-06T13:14:45;31.10;32.30
12060;DHT22;6091;51.432;6.880;2024-03-06T13:17:12;31.10;32.20
12060;DHT22;6091;51.432;6.880;2024-03-06T13:19:40;31.10;32.10
12060;DHT22;6091;51.432;6.880;2024-03-06T13:22:07;31.20;32.10
12060;DHT22;6091;51.432;6.880;2024-03-06T13:24:35;31.10;32.00
12060;DHT22;6091;51.432;6.880;2024-03-06T13:27:06;31.10;31.90
12060;DHT22;6091;51.432;6.880;2024-03-06T13:29:35;31.10;31.90
12060;DHT22;6091;51.432;6.880;2024-03-06T13:32:09;31.10;31.80
12060;DHT22;6091;51.432;6.880;2024-03-06T13:34:36;31.10;31.70
12060;DHT22;6091;51.432;6.880;2024-03-06T13:37:03;31.00;31.60
12060;DHT22;6091;51.432;6.880;2024-03-06T13:39:33;30.90;31.60
12060;DHT22;6091;51.432;6.880;2024-03-06T13:42:00;30.80;31.50
12060;DHT22;6091;51.432;6.880;2024-03-06T13:44:28;30.70;31.50
12060;DHT22;6091;51.432;6.880;2024-03-06T13:46:55;30.50;31.40
12060;DHT22;6091;51.432;6.880;2024-03-06T13:49:39;30.30;31.30
12060;DHT22;6091;51.432;6.880;2024-03-06T13:52:08;30.20;31.20
12060;DHT22;6091;51.432;6.880;2024-03-06T13:54:42;30.10;31.40
12060;DHT22;6091;51.432;6.880;2024-03-06T13:57:09;29.90;31.50
12060;DHT22;6091;51.432;6.880;2024-03-06T13:59:38;29.80;31.50
12060;DHT22;6091;51.432;6.880;2024-03-06T14:02:09;29.60;31.60
12060;DHT22;6091;51.432;6.880;2024-03-06T14:04:38;29.50;31.60
12060;DHT22;6091;51.432;6.880;2024-03-06T14:07:05;29.40;31.70
12060;DHT22;6091;51.432;6.880;2024-03-06T14:09:35;29.30;31.70
12060;DHT22;6091;51.432;6.880;2024-03-06T14:12:02;29.10;31.80
12060;DHT22;6091;51.432;6.880;2024-03-06T14:14:30;29.10;32.00
12060;DHT22;6091;51.432;6.880;2024-03-06T14:17:00;29.00;32.10
12060;DHT22;6091;51.432;6.880;2024-03-06T14:19:27;28.90;32.20
12060;DHT22;6091;51.432;6.880;2024-03-06T14:21:56;28.90;32.20
12060;DHT22;6091;51.432;6.880;2024-03-06T14:24:29;28.80;32.30
12060;DHT22;6091;51.432;6.880;2024-03-06T14:26:57;28.80;32.30
12060;DHT22;6091;51.432;6.880;2024-03-06T14:29:24;28.80;32.40
12060;DHT22;6091;51.432;6.880;2024-03-06T14:31:55;28.80;32.60
12060;DHT22;6091;51.432;6.880;2024-03-06T14:34:22;28.70;32.50
12060;DHT22;6091;51.432;6.880;2024-03-06T14:36:51;28.70;32.50
12060;DHT22;6091;51.432;6.880;2024-03-06T14:39:21;28.60;32.50
12060;DHT22;6091;51.432;6.880;2024-03-06T14:41:50;28.60;32.50
12060;DHT22;6091;51.432;6.880;2024-03-06T14:44:18;28.60;32.50
12060;DHT22;6091;51.432;6.880;2024-03-06T14:46:46;28.50;32.60
12060;DHT22;6091;51.432;6.880;2024-03-06T14:49:14;28.50;32.60
12060;DHT22;6091;51.432;6.880;2024-03-06T14:51:43;28.40;32.60
12060;DHT22;6091;51.432;6.880;2024-03-06T14:54:10;28.40;32.70
12060;DHT22;6091;51.432;6.880;2024-03-06T14:56:38;28.30;32.70
12060;DHT22;6091;51.432;6.880;2024-03-06T14:59:05;28.30;32.70
12060;DHT22;6091;51.432;6.880;2024-03-06T15:01:34;28.20;32.70
12060;DHT22;6091;51.432;6.880;2024-03-06T15:04:03;28.10;32.70
12060;DHT22;6091;51.432;6.880;2024-03-06T15:06:30;28.10;32.80
12060;DHT22;6091;51.432;6.880;2024-03-06T15:08:58;28.10;32.90
12060;DHT22;6091;51.432;6.880;2024-03-06T15:11:25;28.00;32.90
12060;DHT22;6091;51.432;6.880;2024-03-06T15:13:56;28.00;32.90
12060;DHT22;6091;51.432;6.880;2024-03-06T15:16:24;27.90;33.00
12060;DHT22;6091;51.432;6.880;2024-03-06T15:18:51;27.90;33.10
12060;DHT22;6091;51.432;6.880;2024-03-06T15:21:23;27.90;33.10
12060;DHT22;6091;51.432;6.880;2024-03-06T15:23:51;27.80;33.20
12060;DHT22;6091;51.432;6.880;2024-03-06T15:26:19;27.80;33.20
12060;DHT22;6091;51.432;6.880;2024-03-06T15:28:47;27.80;33.30
12060;DHT22;6091;51.432;6.880;2024-03-06T15:31:15;27.70;33.30
12060;DHT22;6091;51.432;6.880;2024-03-06T15:33:42;27.70;33.40
12060;DHT22;6091;51.432;6.880;2024-03-06T15:36:17;27.60;33.40
12060;DHT22;6091;51.432;6.880;2024-03-06T15:38:44;27.30;33.20
12060;DHT22;6091;51.432;6.880;2024-03-06T15:41:13;27.50;33.40
12060;DHT22;6091;51.432;6.880;2024-03-06T15:43:40;27.50;33.50
12060;DHT22;6091;51.432;6.880;2024-03-06T15:46:08;27.50;33.50
12060;DHT22;6091;51.432;6.880;2024-03-06T15:48:36;27.50;33.60
12060;DHT22;6091;51.432;6.880;2024-03-06T15:51:04;27.40;33.70
12060;DHT22;6091;51.432;6.880;2024-03-06T15:53:33;27.40;33.70
12060;DHT22;6091;51.432;6.880;2024-03-06T15:56:01;27.40;33.80
12060;DHT22;6091;51.432;6.880;2024-03-06T15:58:28;27.40;33.80
12060;DHT22;6091;51.432;6.880;2024-03-06T16:00:56;27.30;33.80
12060;DHT22;6091;51.432;6.880;2024-03-06T16:03:28;27.30;33.90
12060;DHT22;6091;51.432;6.880;2024-03-06T16:05:55;27.30;33.90
12060;DHT22;6091;51.432;6.880;2024-03-06T16:08:37;27.30;34.00